Addison, Maine
Current Conditions -  °F | °C
As of 6:15 PM on Tuesday 25 Nov 2014 (Local Time) from KBHB Reporting Station
Clear Clear  
Wind Chill: 11°   Ceiling: Unl
Heat Index: 11°   Visibility: 10mi
Dew Point:   Wind: 5mph
Humidity: 71%   Direction: 230°SW
Pressure: 29.88"   Gusts: NA
Location:  44.62°N, 67.74°W
Report Text: KBHB 252315Z AUTO 23004KT 10SM CLR 11/06 A2988 RMK AO1
Loading
Personal Weather Stations






























Interactive Weather Map New forecast layout! Learn more

10-Day Weather Forecast

Advertisements
Track Severe Weather on mobile